sensor_id;sensor_type;location;lat;lon;timestamp;P1;durP1;ratioP1;P2;durP2;ratioP2
77726;SDS011;68312;53.502;10.030;2023-07-28T00:02:06;4.85;;;3.50;;
77726;SDS011;68312;53.502;10.030;2023-07-28T00:04:33;7.78;;;3.47;;
77726;SDS011;68312;53.502;10.030;2023-07-28T00:06:59;5.97;;;3.38;;
77726;SDS011;68312;53.502;10.030;2023-07-28T00:09:24;5.93;;;3.78;;
77726;SDS011;68312;53.502;10.030;2023-07-28T00:11:52;5.53;;;3.72;;
77726;SDS011;68312;53.502;10.030;2023-07-28T00:14:18;6.78;;;3.80;;
77726;SDS011;68312;53.502;10.030;2023-07-28T00:16:44;6.20;;;4.22;;
77726;SDS011;68312;53.502;10.030;2023-07-28T00:19:10;6.43;;;3.88;;
77726;SDS011;68312;53.502;10.030;2023-07-28T00:21:35;6.90;;;3.65;;
77726;SDS011;68312;53.502;10.030;2023-07-28T00:24:00;5.13;;;3.55;;
77726;SDS011;68312;53.502;10.030;2023-07-28T00:26:26;5.22;;;3.33;;
77726;SDS011;68312;53.502;10.030;2023-07-28T00:28:51;6.38;;;3.78;;
77726;SDS011;68312;53.502;10.030;2023-07-28T00:31:17;4.35;;;2.65;;
77726;SDS011;68312;53.502;10.030;2023-07-28T00:33:42;3.80;;;2.40;;
77726;SDS011;68312;53.502;10.030;2023-07-28T00:36:08;4.95;;;2.85;;
77726;SDS011;68312;53.502;10.030;2023-07-28T00:38:33;5.05;;;2.55;;
77726;SDS011;68312;53.502;10.030;2023-07-28T00:40:58;5.45;;;3.47;;
77726;SDS011;68312;53.502;10.030;2023-07-28T00:43:24;6.30;;;3.72;;
77726;SDS011;68312;53.502;10.030;2023-07-28T00:45:50;5.80;;;3.05;;
77726;SDS011;68312;53.502;10.030;2023-07-28T00:48:15;5.38;;;3.10;;
77726;SDS011;68312;53.502;10.030;2023-07-28T00:50:43;4.85;;;2.38;;
77726;SDS011;68312;53.502;10.030;2023-07-28T00:53:10;5.72;;;3.20;;
77726;SDS011;68312;53.502;10.030;2023-07-28T00:55:36;5.43;;;3.05;;
77726;SDS011;68312;53.502;10.030;2023-07-28T00:58:03;6.97;;;3.00;;
77726;SDS011;68312;53.502;10.030;2023-07-28T01:00:28;4.72;;;2.65;;
77726;SDS011;68312;53.502;10.030;2023-07-28T01:02:54;5.45;;;3.10;;
77726;SDS011;68312;53.502;10.030;2023-07-28T01:05:21;4.47;;;3.05;;
77726;SDS011;68312;53.502;10.030;2023-07-28T01:10:46;4.07;;;2.72;;
77726;SDS011;68312;53.502;10.030;2023-07-28T01:13:12;4.97;;;2.92;;
77726;SDS011;68312;53.502;10.030;2023-07-28T01:15:37;4.25;;;2.70;;
77726;SDS011;68312;53.502;10.030;2023-07-28T01:18:02;4.65;;;2.80;;
77726;SDS011;68312;53.502;10.030;2023-07-28T01:20:29;4.25;;;2.33;;
77726;SDS011;68312;53.502;10.030;2023-07-28T01:23:16;4.80;;;2.60;;
77726;SDS011;68312;53.502;10.030;2023-07-28T01:25:49;3.97;;;2.60;;
77726;SDS011;68312;53.502;10.030;2023-07-28T01:28:21;5.00;;;2.45;;
77726;SDS011;68312;53.502;10.030;2023-07-28T01:30:47;5.45;;;2.50;;
77726;SDS011;68312;53.502;10.030;2023-07-28T01:33:13;3.75;;;2.38;;
77726;SDS011;68312;53.502;10.030;2023-07-28T01:35:38;3.88;;;2.40;;
77726;SDS011;68312;53.502;10.030;2023-07-28T01:38:04;6.28;;;2.55;;
77726;SDS011;68312;53.502;10.030;2023-07-28T01:40:30;3.50;;;2.22;;
77726;SDS011;68312;53.502;10.030;2023-07-28T01:42:56;5.72;;;2.50;;
77726;SDS011;68312;53.502;10.030;2023-07-28T01:45:21;3.15;;;2.05;;
77726;SDS011;68312;53.502;10.030;2023-07-28T01:47:47;4.20;;;2.28;;
77726;SDS011;68312;53.502;10.030;2023-07-28T01:50:12;3.58;;;2.03;;
77726;SDS011;68312;53.502;10.030;2023-07-28T01:52:37;3.10;;;2.08;;
77726;SDS011;68312;53.502;10.030;2023-07-28T01:55:03;3.53;;;2.25;;
77726;SDS011;68312;53.502;10.030;2023-07-28T01:57:32;3.13;;;2.20;;
77726;SDS011;68312;53.502;10.030;2023-07-28T01:59:58;3.30;;;2.30;;
77726;SDS011;68312;53.502;10.030;2023-07-28T02:02:24;4.35;;;2.28;;
77726;SDS011;68312;53.502;10.030;2023-07-28T02:04:49;4.00;;;2.03;;
77726;SDS011;68312;53.502;10.030;2023-07-28T02:07:15;2.83;;;2.03;;
77726;SDS011;68312;53.502;10.030;2023-07-28T02:09:40;3.80;;;2.00;;
77726;SDS011;68312;53.502;10.030;2023-07-28T02:12:06;3.75;;;2.50;;
77726;SDS011;68312;53.502;10.030;2023-07-28T02:14:31;4.30;;;2.15;;
77726;SDS011;68312;53.502;10.030;2023-07-28T02:16:57;3.22;;;2.17;;
77726;SDS011;68312;53.502;10.030;2023-07-28T02:19:22;3.17;;;2.05;;
77726;SDS011;68312;53.502;10.030;2023-07-28T02:21:49;4.40;;;2.50;;
77726;SDS011;68312;53.502;10.030;2023-07-28T02:24:15;4.00;;;2.63;;
77726;SDS011;68312;53.502;10.030;2023-07-28T02:26:41;5.00;;;2.72;;
77726;SDS011;68312;53.502;10.030;2023-07-28T02:29:06;4.05;;;2.75;;
77726;SDS011;68312;53.502;10.030;2023-07-28T02:31:31;3.95;;;2.42;;
77726;SDS011;68312;53.502;10.030;2023-07-28T02:33:57;4.53;;;2.80;;
77726;SDS011;68312;53.502;10.030;2023-07-28T02:36:22;4.43;;;2.80;;
77726;SDS011;68312;53.502;10.030;2023-07-28T02:38:48;5.78;;;2.83;;
77726;SDS011;68312;53.502;10.030;2023-07-28T02:41:13;5.00;;;3.22;;
77726;SDS011;68312;53.502;10.030;2023-07-28T02:43:38;5.25;;;2.88;;
77726;SDS011;68312;53.502;10.030;2023-07-28T02:46:04;3.95;;;2.75;;
77726;SDS011;68312;53.502;10.030;2023-07-28T02:48:30;4.93;;;3.10;;
77726;SDS011;68312;53.502;10.030;2023-07-28T02:50:55;5.38;;;2.63;;
77726;SDS011;68312;53.502;10.030;2023-07-28T02:53:20;6.90;;;2.90;;
77726;SDS011;68312;53.502;10.030;2023-07-28T02:55:47;4.65;;;2.40;;
77726;SDS011;68312;53.502;10.030;2023-07-28T02:58:13;3.92;;;2.53;;
77726;SDS011;68312;53.502;10.030;2023-07-28T03:00:39;4.95;;;2.55;;
77726;SDS011;68312;53.502;10.030;2023-07-28T03:03:10;4.45;;;2.53;;
77726;SDS011;68312;53.502;10.030;2023-07-28T03:05:37;5.32;;;3.45;;
77726;SDS011;68312;53.502;10.030;2023-07-28T03:08:04;5.30;;;3.20;;
77726;SDS011;68312;53.502;10.030;2023-07-28T03:10:30;5.20;;;3.08;;
77726;SDS011;68312;53.502;10.030;2023-07-28T03:12:58;5.47;;;2.85;;
77726;SDS011;68312;53.502;10.030;2023-07-28T03:15:23;3.90;;;2.28;;
77726;SDS011;68312;53.502;10.030;2023-07-28T03:17:49;5.13;;;2.65;;
77726;SDS011;68312;53.502;10.030;2023-07-28T03:20:16;3.80;;;1.90;;
77726;SDS011;68312;53.502;10.030;2023-07-28T03:22:41;3.20;;;2.05;;
77726;SDS011;68312;53.502;10.030;2023-07-28T03:25:07;6.43;;;1.83;;
77726;SDS011;68312;53.502;10.030;2023-07-28T03:27:33;5.10;;;2.05;;
77726;SDS011;68312;53.502;10.030;2023-07-28T03:29:59;2.97;;;1.70;;
77726;SDS011;68312;53.502;10.030;2023-07-28T03:32:25;4.32;;;2.03;;
77726;SDS011;68312;53.502;10.030;2023-07-28T03:34:50;2.97;;;1.52;;
77726;SDS011;68312;53.502;10.030;2023-07-28T03:37:16;3.20;;;1.60;;
77726;SDS011;68312;53.502;10.030;2023-07-28T03:39:41;2.45;;;1.60;;
77726;SDS011;68312;53.502;10.030;2023-07-28T03:42:07;2.20;;;1.23;;
77726;SDS011;68312;53.502;10.030;2023-07-28T03:44:32;3.53;;;1.90;;
77726;SDS011;68312;53.502;10.030;2023-07-28T03:46:58;2.88;;;1.95;;
77726;SDS011;68312;53.502;10.030;2023-07-28T03:49:24;2.78;;;1.80;;
77726;SDS011;68312;53.502;10.030;2023-07-28T03:51:49;2.42;;;1.73;;
77726;SDS011;68312;53.502;10.030;2023-07-28T03:54:15;3.58;;;1.50;;
77726;SDS011;68312;53.502;10.030;2023-07-28T03:56:40;2.67;;;1.70;;
77726;SDS011;68312;53.502;10.030;2023-07-28T03:59:05;5.32;;;1.92;;
77726;SDS011;68312;53.502;10.030;2023-07-28T04:01:31;3.30;;;1.88;;
77726;SDS011;68312;53.502;10.030;2023-07-28T04:03:56;2.97;;;1.85;;
77726;SDS011;68312;53.502;10.030;2023-07-28T04:06:39;3.58;;;1.90;;
77726;SDS011;68312;53.502;10.030;2023-07-28T04:09:12;4.55;;;1.70;;
77726;SDS011;68312;53.502;10.030;2023-07-28T04:11:39;2.72;;;1.90;;
77726;SDS011;68312;53.502;10.030;2023-07-28T04:14:05;2.05;;;1.27;;
77726;SDS011;68312;53.502;10.030;2023-07-28T04:16:31;4.38;;;2.05;;
77726;SDS011;68312;53.502;10.030;2023-07-28T04:18:57;5.68;;;2.00;;
77726;SDS011;68312;53.502;10.030;2023-07-28T04:21:23;2.50;;;1.80;;
77726;SDS011;68312;53.502;10.030;2023-07-28T04:23:49;3.65;;;1.55;;
77726;SDS011;68312;53.502;10.030;2023-07-28T04:26:16;3.22;;;1.88;;
77726;SDS011;68312;53.502;10.030;2023-07-28T04:28:42;2.55;;;1.70;;
77726;SDS011;68312;53.502;10.030;2023-07-28T04:31:07;2.53;;;1.90;;
77726;SDS011;68312;53.502;10.030;2023-07-28T04:33:32;2.88;;;1.75;;
77726;SDS011;68312;53.502;10.030;2023-07-28T04:35:59;2.75;;;1.73;;
77726;SDS011;68312;53.502;10.030;2023-07-28T04:38:28;3.10;;;1.90;;
77726;SDS011;68312;53.502;10.030;2023-07-28T04:40:55;3.60;;;1.67;;
77726;SDS011;68312;53.502;10.030;2023-07-28T04:43:20;2.85;;;1.70;;
77726;SDS011;68312;53.502;10.030;2023-07-28T04:45:45;3.22;;;2.10;;
77726;SDS011;68312;53.502;10.030;2023-07-28T04:48:11;3.05;;;1.83;;
77726;SDS011;68312;53.502;10.030;2023-07-28T04:50:36;2.83;;;1.77;;
77726;SDS011;68312;53.502;10.030;2023-07-28T04:53:02;2.80;;;1.90;;
77726;SDS011;68312;53.502;10.030;2023-07-28T04:55:27;3.17;;;1.88;;
77726;SDS011;68312;53.502;10.030;2023-07-28T04:57:53;4.50;;;2.10;;
77726;SDS011;68312;53.502;10.030;2023-07-28T05:00:18;4.03;;;2.40;;
77726;SDS011;68312;53.502;10.030;2023-07-28T05:02:44;3.88;;;2.33;;
77726;SDS011;68312;53.502;10.030;2023-07-28T05:05:09;3.83;;;2.10;;
77726;SDS011;68312;53.502;10.030;2023-07-28T05:07:35;2.58;;;1.52;;
77726;SDS011;68312;53.502;10.030;2023-07-28T05:10:00;3.47;;;2.38;;
77726;SDS011;68312;53.502;10.030;2023-07-28T05:12:26;2.90;;;1.90;;
77726;SDS011;68312;53.502;10.030;2023-07-28T05:14:53;3.50;;;2.20;;
77726;SDS011;68312;53.502;10.030;2023-07-28T05:17:18;3.20;;;2.20;;
77726;SDS011;68312;53.502;10.030;2023-07-28T05:19:46;3.13;;;2.20;;
77726;SDS011;68312;53.502;10.030;2023-07-28T05:22:11;3.33;;;2.22;;
77726;SDS011;68312;53.502;10.030;2023-07-28T05:24:36;4.25;;;2.20;;
77726;SDS011;68312;53.502;10.030;2023-07-28T05:29:55;4.38;;;2.35;;
77726;SDS011;68312;53.502;10.030;2023-07-28T05:32:20;4.45;;;2.38;;
77726;SDS011;68312;53.502;10.030;2023-07-28T05:34:46;4.07;;;2.00;;
77726;SDS011;68312;53.502;10.030;2023-07-28T05:37:12;4.10;;;2.70;;
77726;SDS011;68312;53.502;10.030;2023-07-28T05:39:37;3.90;;;2.80;;
77726;SDS011;68312;53.502;10.030;2023-07-28T05:42:02;2.95;;;1.80;;
77726;SDS011;68312;53.502;10.030;2023-07-28T05:44:28;5.13;;;2.80;;
77726;SDS011;68312;53.502;10.030;2023-07-28T05:46:54;4.68;;;2.28;;
77726;SDS011;68312;53.502;10.030;2023-07-28T05:49:19;4.38;;;2.92;;
77726;SDS011;68312;53.502;10.030;2023-07-28T05:51:45;4.82;;;2.80;;
77726;SDS011;68312;53.502;10.030;2023-07-28T05:54:11;5.18;;;2.90;;
77726;SDS011;68312;53.502;10.030;2023-07-28T05:56:39;4.50;;;2.60;;
77726;SDS011;68312;53.502;10.030;2023-07-28T05:59:05;5.88;;;2.83;;
77726;SDS011;68312;53.502;10.030;2023-07-28T06:01:32;5.35;;;3.30;;
77726;SDS011;68312;53.502;10.030;2023-07-28T06:07:19;3.88;;;2.65;;
77726;SDS011;68312;53.502;10.030;2023-07-28T06:09:44;4.50;;;2.70;;
77726;SDS011;68312;53.502;10.030;2023-07-28T06:12:10;4.43;;;3.10;;
77726;SDS011;68312;53.502;10.030;2023-07-28T06:14:35;4.72;;;3.25;;
77726;SDS011;68312;53.502;10.030;2023-07-28T06:17:00;3.53;;;2.55;;
77726;SDS011;68312;53.502;10.030;2023-07-28T06:19:26;4.22;;;2.63;;
77726;SDS011;68312;53.502;10.030;2023-07-28T06:21:51;4.93;;;3.17;;
77726;SDS011;68312;53.502;10.030;2023-07-28T06:24:17;5.53;;;2.97;;
77726;SDS011;68312;53.502;10.030;2023-07-28T06:26:42;4.85;;;2.75;;
77726;SDS011;68312;53.502;10.030;2023-07-28T06:29:08;6.03;;;3.35;;
77726;SDS011;68312;53.502;10.030;2023-07-28T06:37:13;8.60;;;4.65;;
77726;SDS011;68312;53.502;10.030;2023-07-28T06:39:39;8.48;;;4.47;;
77726;SDS011;68312;53.502;10.030;2023-07-28T06:42:04;6.60;;;4.78;;
77726;SDS011;68312;53.502;10.030;2023-07-28T06:44:30;8.23;;;5.47;;
77726;SDS011;68312;53.502;10.030;2023-07-28T06:46:56;6.63;;;4.65;;
77726;SDS011;68312;53.502;10.030;2023-07-28T06:49:21;8.75;;;5.43;;
77726;SDS011;68312;53.502;10.030;2023-07-28T06:51:47;10.23;;;5.55;;
77726;SDS011;68312;53.502;10.030;2023-07-28T06:54:12;9.63;;;5.70;;
77726;SDS011;68312;53.502;10.030;2023-07-28T06:56:38;9.88;;;5.75;;
77726;SDS011;68312;53.502;10.030;2023-07-28T06:59:05;13.02;;;6.45;;
77726;SDS011;68312;53.502;10.030;2023-07-28T07:01:31;9.88;;;6.70;;
77726;SDS011;68312;53.502;10.030;2023-07-28T07:03:58;8.20;;;4.80;;
77726;SDS011;68312;53.502;10.030;2023-07-28T07:06:24;6.10;;;3.35;;
77726;SDS011;68312;53.502;10.030;2023-07-28T07:08:49;5.43;;;3.25;;
77726;SDS011;68312;53.502;10.030;2023-07-28T07:11:15;4.35;;;2.88;;
77726;SDS011;68312;53.502;10.030;2023-07-28T07:13:40;7.05;;;3.53;;
77726;SDS011;68312;53.502;10.030;2023-07-28T07:16:08;5.45;;;3.30;;
77726;SDS011;68312;53.502;10.030;2023-07-28T07:18:41;7.32;;;4.90;;
77726;SDS011;68312;53.502;10.030;2023-07-28T07:21:07;9.32;;;6.00;;
77726;SDS011;68312;53.502;10.030;2023-07-28T07:23:33;9.88;;;5.80;;
77726;SDS011;68312;53.502;10.030;2023-07-28T07:25:58;23.70;;;6.90;;
77726;SDS011;68312;53.502;10.030;2023-07-28T07:28:24;23.23;;;7.75;;
77726;SDS011;68312;53.502;10.030;2023-07-28T07:30:50;9.57;;;4.72;;
77726;SDS011;68312;53.502;10.030;2023-07-28T07:33:15;15.32;;;5.65;;
77726;SDS011;68312;53.502;10.030;2023-07-28T07:35:40;8.60;;;5.40;;
77726;SDS011;68312;53.502;10.030;2023-07-28T07:38:06;11.38;;;6.65;;
77726;SDS011;68312;53.502;10.030;2023-07-28T07:40:34;9.57;;;6.13;;
77726;SDS011;68312;53.502;10.030;2023-07-28T07:43:01;9.10;;;5.80;;
77726;SDS011;68312;53.502;10.030;2023-07-28T07:45:28;9.27;;;6.35;;
77726;SDS011;68312;53.502;10.030;2023-07-28T07:47:56;10.52;;;6.93;;
77726;SDS011;68312;53.502;10.030;2023-07-28T07:50:23;9.07;;;6.03;;
77726;SDS011;68312;53.502;10.030;2023-07-28T07:52:48;8.05;;;5.40;;
77726;SDS011;68312;53.502;10.030;2023-07-28T07:55:14;6.72;;;4.88;;
77726;SDS011;68312;53.502;10.030;2023-07-28T07:57:52;8.02;;;5.97;;
77726;SDS011;68312;53.502;10.030;2023-07-28T08:00:17;8.57;;;5.15;;
77726;SDS011;68312;53.502;10.030;2023-07-28T08:02:43;10.80;;;5.78;;
77726;SDS011;68312;53.502;10.030;2023-07-28T08:05:09;9.02;;;5.85;;
77726;SDS011;68312;53.502;10.030;2023-07-28T08:07:35;8.45;;;5.32;;
77726;SDS011;68312;53.502;10.030;2023-07-28T08:16:38;7.78;;;4.65;;
77726;SDS011;68312;53.502;10.030;2023-07-28T08:19:04;7.93;;;4.90;;
77726;SDS011;68312;53.502;10.030;2023-07-28T08:21:29;10.45;;;6.10;;
77726;SDS011;68312;53.502;10.030;2023-07-28T08:24:01;7.05;;;5.10;;
77726;SDS011;68312;53.502;10.030;2023-07-28T08:26:27;4.47;;;3.47;;
77726;SDS011;68312;53.502;10.030;2023-07-28T08:28:53;4.95;;;3.72;;
77726;SDS011;68312;53.502;10.030;2023-07-28T08:31:19;3.63;;;2.83;;
77726;SDS011;68312;53.502;10.030;2023-07-28T08:33:44;4.07;;;2.65;;
77726;SDS011;68312;53.502;10.030;2023-07-28T08:36:09;4.10;;;2.92;;
77726;SDS011;68312;53.502;10.030;2023-07-28T08:38:35;4.10;;;2.80;;
77726;SDS011;68312;53.502;10.030;2023-07-28T08:41:01;6.75;;;3.47;;
77726;SDS011;68312;53.502;10.030;2023-07-28T08:46:29;3.88;;;3.17;;
77726;SDS011;68312;53.502;10.030;2023-07-28T08:48:55;6.18;;;4.43;;
77726;SDS011;68312;53.502;10.030;2023-07-28T08:51:24;7.10;;;4.40;;
77726;SDS011;68312;53.502;10.030;2023-07-28T08:53:49;5.82;;;4.20;;
77726;SDS011;68312;53.502;10.030;2023-07-28T08:56:15;5.28;;;3.83;;
77726;SDS011;68312;53.502;10.030;2023-07-28T08:58:40;7.50;;;4.60;;
77726;SDS011;68312;53.502;10.030;2023-07-28T09:01:07;4.75;;;4.05;;
77726;SDS011;68312;53.502;10.030;2023-07-28T09:03:32;5.30;;;3.78;;
77726;SDS011;68312;53.502;10.030;2023-07-28T09:06:02;5.03;;;3.40;;
77726;SDS011;68312;53.502;10.030;2023-07-28T09:08:30;5.10;;;3.28;;
77726;SDS011;68312;53.502;10.030;2023-07-28T09:10:57;3.85;;;2.80;;
77726;SDS011;68312;53.502;10.030;2023-07-28T09:13:34;3.23;;;2.43;;
77726;SDS011;68312;53.502;10.030;2023-07-28T09:16:16;7.63;;;2.90;;
77726;SDS011;68312;53.502;10.030;2023-07-28T09:18:43;3.83;;;2.20;;
77726;SDS011;68312;53.502;10.030;2023-07-28T09:21:26;2.92;;;2.40;;
77726;SDS011;68312;53.502;10.030;2023-07-28T09:26:18;3.70;;;2.60;;
77726;SDS011;68312;53.502;10.030;2023-07-28T09:28:43;4.55;;;2.60;;
77726;SDS011;68312;53.502;10.030;2023-07-28T09:31:09;4.05;;;2.72;;
77726;SDS011;68312;53.502;10.030;2023-07-28T09:33:36;3.45;;;2.15;;
77726;SDS011;68312;53.502;10.030;2023-07-28T09:36:09;3.28;;;2.22;;
77726;SDS011;68312;53.502;10.030;2023-07-28T09:38:40;3.17;;;2.20;;
77726;SDS011;68312;53.502;10.030;2023-07-28T09:41:08;3.88;;;2.13;;
77726;SDS011;68312;53.502;10.030;2023-07-28T09:43:36;2.55;;;1.88;;
77726;SDS011;68312;53.502;10.030;2023-07-28T09:46:04;4.70;;;2.47;;
77726;SDS011;68312;53.502;10.030;2023-07-28T09:48:32;3.30;;;2.13;;
77726;SDS011;68312;53.502;10.030;2023-07-28T09:53:56;2.97;;;2.15;;
77726;SDS011;68312;53.502;10.030;2023-07-28T09:56:35;3.67;;;2.35;;
77726;SDS011;68312;53.502;10.030;2023-07-28T09:59:04;2.97;;;2.30;;
77726;SDS011;68312;53.502;10.030;2023-07-28T10:01:39;5.72;;;2.55;;
77726;SDS011;68312;53.502;10.030;2023-07-28T10:04:05;3.88;;;2.42;;
77726;SDS011;68312;53.502;10.030;2023-07-28T10:06:32;3.30;;;2.42;;
77726;SDS011;68312;53.502;10.030;2023-07-28T10:08:59;4.93;;;2.40;;
77726;SDS011;68312;53.502;10.030;2023-07-28T10:11:25;5.25;;;2.80;;
77726;SDS011;68312;53.502;10.030;2023-07-28T10:13:53;3.75;;;2.90;;
77726;SDS011;68312;53.502;10.030;2023-07-28T10:16:20;4.60;;;2.90;;
77726;SDS011;68312;53.502;10.030;2023-07-28T10:18:56;4.60;;;2.70;;
77726;SDS011;68312;53.502;10.030;2023-07-28T10:21:21;3.05;;;2.20;;
77726;SDS011;68312;53.502;10.030;2023-07-28T10:23:54;4.43;;;2.70;;
77726;SDS011;68312;53.502;10.030;2023-07-28T10:26:40;4.28;;;3.05;;
77726;SDS011;68312;53.502;10.030;2023-07-28T10:29:11;4.63;;;2.83;;
77726;SDS011;68312;53.502;10.030;2023-07-28T10:31:49;4.00;;;2.40;;
77726;SDS011;68312;53.502;10.030;2023-07-28T10:34:20;3.40;;;2.42;;
77726;SDS011;68312;53.502;10.030;2023-07-28T10:36:49;3.47;;;2.10;;
77726;SDS011;68312;53.502;10.030;2023-07-28T10:39:23;4.22;;;2.70;;
77726;SDS011;68312;53.502;10.030;2023-07-28T10:42:05;4.13;;;2.55;;
77726;SDS011;68312;53.502;10.030;2023-07-28T10:44:33;4.07;;;2.47;;
77726;SDS011;68312;53.502;10.030;2023-07-28T10:47:00;4.70;;;2.42;;
77726;SDS011;68312;53.502;10.030;2023-07-28T10:49:26;3.97;;;2.47;;
77726;SDS011;68312;53.502;10.030;2023-07-28T10:51:53;4.18;;;2.58;;
77726;SDS011;68312;53.502;10.030;2023-07-28T10:54:19;6.05;;;2.60;;
77726;SDS011;68312;53.502;10.030;2023-07-28T10:56:47;4.63;;;2.60;;
77726;SDS011;68312;53.502;10.030;2023-07-28T10:59:15;3.55;;;2.60;;
77726;SDS011;68312;53.502;10.030;2023-07-28T11:01:41;5.15;;;2.33;;
77726;SDS011;68312;53.502;10.030;2023-07-28T11:04:11;4.15;;;2.53;;
77726;SDS011;68312;53.502;10.030;2023-07-28T11:06:41;4.82;;;2.50;;
77726;SDS011;68312;53.502;10.030;2023-07-28T11:09:10;5.13;;;2.40;;
77726;SDS011;68312;53.502;10.030;2023-07-28T11:11:37;4.60;;;2.70;;
77726;SDS011;68312;53.502;10.030;2023-07-28T11:14:04;4.15;;;2.55;;
77726;SDS011;68312;53.502;10.030;2023-07-28T11:16:38;8.27;;;3.75;;
77726;SDS011;68312;53.502;10.030;2023-07-28T11:19:09;4.15;;;3.10;;
77726;SDS011;68312;53.502;10.030;2023-07-28T11:21:40;6.53;;;3.13;;
77726;SDS011;68312;53.502;10.030;2023-07-28T11:24:08;5.57;;;2.80;;
77726;SDS011;68312;53.502;10.030;2023-07-28T11:26:35;4.70;;;2.90;;
77726;SDS011;68312;53.502;10.030;2023-07-28T11:29:01;6.03;;;2.60;;
77726;SDS011;68312;53.502;10.030;2023-07-28T11:31:27;4.80;;;2.35;;
77726;SDS011;68312;53.502;10.030;2023-07-28T11:33:52;5.38;;;2.55;;
77726;SDS011;68312;53.502;10.030;2023-07-28T11:36:22;3.88;;;2.22;;
77726;SDS011;68312;53.502;10.030;2023-07-28T11:38:52;4.18;;;2.15;;
77726;SDS011;68312;53.502;10.030;2023-07-28T11:41:20;4.00;;;2.50;;
77726;SDS011;68312;53.502;10.030;2023-07-28T11:43:49;4.03;;;2.20;;
77726;SDS011;68312;53.502;10.030;2023-07-28T11:49:11;2.40;;;1.60;;
77726;SDS011;68312;53.502;10.030;2023-07-28T11:51:42;1.38;;;0.93;;
77726;SDS011;68312;53.502;10.030;2023-07-28T11:54:13;2.33;;;1.20;;
77726;SDS011;68312;53.502;10.030;2023-07-28T11:56:47;2.95;;;1.50;;
77726;SDS011;68312;53.502;10.030;2023-07-28T11:59:15;2.33;;;1.40;;
77726;SDS011;68312;53.502;10.030;2023-07-28T12:02:00;3.08;;;1.50;;
77726;SDS011;68312;53.502;10.030;2023-07-28T12:07:30;4.60;;;1.45;;
77726;SDS011;68312;53.502;10.030;2023-07-28T12:10:04;2.47;;;1.70;;
77726;SDS011;68312;53.502;10.030;2023-07-28T12:15:32;3.10;;;1.55;;
77726;SDS011;68312;53.502;10.030;2023-07-28T12:18:03;3.17;;;1.42;;
77726;SDS011;68312;53.502;10.030;2023-07-28T12:20:40;3.33;;;1.50;;
77726;SDS011;68312;53.502;10.030;2023-07-28T12:23:15;2.05;;;1.40;;
77726;SDS011;68312;53.502;10.030;2023-07-28T12:25:43;2.35;;;1.40;;
77726;SDS011;68312;53.502;10.030;2023-07-28T12:28:09;2.42;;;1.40;;
77726;SDS011;68312;53.502;10.030;2023-07-28T12:30:35;2.08;;;1.48;;
77726;SDS011;68312;53.502;10.030;2023-07-28T12:33:02;2.25;;;1.40;;
77726;SDS011;68312;53.502;10.030;2023-07-28T12:35:31;3.75;;;1.30;;
77726;SDS011;68312;53.502;10.030;2023-07-28T12:38:02;1.75;;;0.98;;
77726;SDS011;68312;53.502;10.030;2023-07-28T12:40:30;3.78;;;1.38;;
77726;SDS011;68312;53.502;10.030;2023-07-28T12:42:57;4.18;;;1.35;;
77726;SDS011;68312;53.502;10.030;2023-07-28T12:45:23;1.60;;;1.15;;
77726;SDS011;68312;53.502;10.030;2023-07-28T12:47:51;2.08;;;1.30;;
77726;SDS011;68312;53.502;10.030;2023-07-28T12:50:18;1.77;;;1.10;;
77726;SDS011;68312;53.502;10.030;2023-07-28T12:52:44;2.10;;;1.33;;
77726;SDS011;68312;53.502;10.030;2023-07-28T12:55:09;1.70;;;1.08;;
77726;SDS011;68312;53.502;10.030;2023-07-28T12:57:35;2.00;;;1.10;;
77726;SDS011;68312;53.502;10.030;2023-07-28T13:00:00;1.40;;;0.90;;
77726;SDS011;68312;53.502;10.030;2023-07-28T13:02:26;2.03;;;0.98;;
77726;SDS011;68312;53.502;10.030;2023-07-28T13:04:51;1.83;;;1.00;;
77726;SDS011;68312;53.502;10.030;2023-07-28T13:07:16;3.72;;;1.15;;
77726;SDS011;68312;53.502;10.030;2023-07-28T13:09:42;2.65;;;1.20;;
77726;SDS011;68312;53.502;10.030;2023-07-28T13:12:08;3.05;;;1.40;;
77726;SDS011;68312;53.502;10.030;2023-07-28T13:14:34;2.72;;;1.15;;
77726;SDS011;68312;53.502;10.030;2023-07-28T13:16:59;2.25;;;1.10;;
77726;SDS011;68312;53.502;10.030;2023-07-28T13:19:25;3.97;;;1.27;;
77726;SDS011;68312;53.502;10.030;2023-07-28T13:21:50;4.60;;;2.03;;
77726;SDS011;68312;53.502;10.030;2023-07-28T13:24:15;4.93;;;2.08;;
77726;SDS011;68312;53.502;10.030;2023-07-28T13:26:41;2.22;;;1.50;;
77726;SDS011;68312;53.502;10.030;2023-07-28T13:29:06;2.28;;;1.52;;
77726;SDS011;68312;53.502;10.030;2023-07-28T13:31:32;2.72;;;1.60;;
77726;SDS011;68312;53.502;10.030;2023-07-28T13:33:58;2.25;;;1.40;;
77726;SDS011;68312;53.502;10.030;2023-07-28T13:36:23;2.65;;;1.80;;
77726;SDS011;68312;53.502;10.030;2023-07-28T13:38:49;2.38;;;1.73;;
77726;SDS011;68312;53.502;10.030;2023-07-28T13:41:14;2.88;;;1.83;;
77726;SDS011;68312;53.502;10.030;2023-07-28T13:43:40;2.38;;;1.40;;
77726;SDS011;68312;53.502;10.030;2023-07-28T13:46:05;2.38;;;1.25;;
77726;SDS011;68312;53.502;10.030;2023-07-28T13:48:32;1.70;;;1.10;;
77726;SDS011;68312;53.502;10.030;2023-07-28T13:50:58;2.28;;;1.40;;
77726;SDS011;68312;53.502;10.030;2023-07-28T13:53:24;2.13;;;1.30;;
77726;SDS011;68312;53.502;10.030;2023-07-28T13:55:50;2.15;;;1.40;;
77726;SDS011;68312;53.502;10.030;2023-07-28T13:58:17;2.92;;;1.38;;
77726;SDS011;68312;53.502;10.030;2023-07-28T14:00:43;2.13;;;1.30;;
77726;SDS011;68312;53.502;10.030;2023-07-28T14:03:08;1.73;;;1.13;;
77726;SDS011;68312;53.502;10.030;2023-07-28T14:05:34;2.45;;;1.25;;
77726;SDS011;68312;53.502;10.030;2023-07-28T14:08:01;1.90;;;1.00;;
77726;SDS011;68312;53.502;10.030;2023-07-28T14:10:27;2.63;;;1.30;;
77726;SDS011;68312;53.502;10.030;2023-07-28T14:12:52;1.90;;;1.33;;
77726;SDS011;68312;53.502;10.030;2023-07-28T14:15:18;2.50;;;1.30;;
77726;SDS011;68312;53.502;10.030;2023-07-28T14:17:43;2.28;;;1.27;;
77726;SDS011;68312;53.502;10.030;2023-07-28T14:20:09;2.90;;;1.50;;
77726;SDS011;68312;53.502;10.030;2023-07-28T14:22:34;5.28;;;1.70;;
77726;SDS011;68312;53.502;10.030;2023-07-28T14:25:00;3.45;;;1.52;;
77726;SDS011;68312;53.502;10.030;2023-07-28T14:27:26;2.30;;;1.42;;
77726;SDS011;68312;53.502;10.030;2023-07-28T14:29:51;2.80;;;1.73;;
77726;SDS011;68312;53.502;10.030;2023-07-28T14:32:16;2.50;;;1.40;;
77726;SDS011;68312;53.502;10.030;2023-07-28T14:34:42;2.13;;;1.30;;
77726;SDS011;68312;53.502;10.030;2023-07-28T14:37:07;1.60;;;0.82;;
77726;SDS011;68312;53.502;10.030;2023-07-28T14:39:33;1.85;;;1.20;;
77726;SDS011;68312;53.502;10.030;2023-07-28T14:41:59;1.90;;;0.95;;
77726;SDS011;68312;53.502;10.030;2023-07-28T14:44:24;1.75;;;1.00;;
77726;SDS011;68312;53.502;10.030;2023-07-28T14:46:50;2.65;;;1.10;;
77726;SDS011;68312;53.502;10.030;2023-07-28T14:49:15;1.70;;;0.80;;
77726;SDS011;68312;53.502;10.030;2023-07-28T14:51:41;2.35;;;0.82;;
77726;SDS011;68312;53.502;10.030;2023-07-28T14:54:06;1.38;;;0.82;;
77726;SDS011;68312;53.502;10.030;2023-07-28T14:56:31;2.15;;;0.68;;
77726;SDS011;68312;53.502;10.030;2023-07-28T14:59:01;1.70;;;0.82;;
77726;SDS011;68312;53.502;10.030;2023-07-28T15:01:27;1.42;;;0.90;;
77726;SDS011;68312;53.502;10.030;2023-07-28T15:03:53;1.45;;;0.70;;
77726;SDS011;68312;53.502;10.030;2023-07-28T15:06:18;2.00;;;1.20;;
77726;SDS011;68312;53.502;10.030;2023-07-28T15:08:44;2.75;;;1.10;;
77726;SDS011;68312;53.502;10.030;2023-07-28T15:11:09;2.28;;;0.98;;